Date,TemperatureHighF,TemperatureAvgF,TemperatureLowF,DewpointHighF,DewpointAvgF,DewpointLowF,HumidityHigh,HumidityAvg,HumidityLow,PressureMaxIn,PressureMinIn,WindSpeedMaxMPH,WindSpeedAvgMPH,GustSpeedMaxMPH,PrecipitationSumIn
2013-3-1,26,21,7,19,14,6,100,76,46,30.25,30.12,12,3,14,0.00
2013-3-2,27,15,4,15,5,-6,100,73,28,30.27,30.16,10,2,10,0.00
2013-3-3,31,14,-3,12,1,-19,100,65,13,30.18,30.07,5,1,6,0.00
2013-3-4,34,23,8,22,12,4,99,64,34,30.12,30.00,11,3,12,0.00
2013-3-5,29,27,23,27,23,21,98,86,76,30.10,29.89,15,5,15,0.00
2013-3-6,33,27,23,22,19,15,88,70,52,30.32,30.10,14,5,16,0.00
2013-3-7,40,22,6,31,9,-18,100,67,10,30.42,30.30,6,1,7,0.00
2013-3-8,37,25,10,26,17,10,100,75,38,30.46,30.25,13,3,13,0.00
2013-3-9,39,34,28,37,27,19,100,76,49,30.25,29.82,17,6,17,0.63
2013-3-10,40,37,34,40,37,34,100,100,96,29.85,29.66,13,4,10,1.34
2013-3-11,35,33,30,34,31,22,100,92,71,29.81,29.59,13,3,0,0.00
2013-3-12,36,28,24,26,17,2,95,65,30,30.01,29.80,13,4,0,0.00
2013-3-13,33,24,18,17,3,-18,79,47,12,30.31,30.00,16,5,0,0.00
2013-3-14,38,25,13,28,16,5,100,72,40,30.30,30.04,10,2,0,0.00
2013-3-15,36,30,25,32,27,21,100,88,62,30.04,29.84,12,2,0,0.08
2013-3-16,31,25,19,24,16,8,97,69,44,30.14,29.84,12,3,0,0.00
2013-3-17,33,22,15,16,8,-2,81,54,33,30.27,29.99,11,2,0,0.00
2013-3-18,36,25,16,29,19,7,100,80,57,29.99,29.60,15,2,0,0.16
2013-3-19,30,19,11,8,2,-7,78,50,22,30.04,29.75,17,5,0,0.00
2013-3-20,23,14,7,4,-3,-14,60,46,23,30.09,30.00,19,5,0,0.00
2013-3-21,32,18,6,13,0,-15,88,51,15,30.07,29.98,12,2,0,0.00
2013-3-22,40,22,8,17,4,-19,98,53,12,30.08,30.00,6,1,0,0.00
2013-3-23,49,28,16,21,9,-21,100,54,8,30.15,30.05,8,1,0,0.00
2013-3-24,31,29,26,26,21,16,90,73,58,30.07,29.82,14,6,0,0.00
2013-3-25,34,30,23,20,16,11,73,58,41,30.10,29.86,14,6,0,0.00
2013-3-26,41,34,29,20,16,8,67,50,30,30.25,30.08,11,4,0,0.00
2013-3-27,44,35,25,24,14,-2,79,46,18,30.32,30.24,11,1,0,0.00
2013-3-28,53,34,21,26,12,-16,91,50,8,30.35,30.26,7,1,0,0.00
2013-3-29,50,36,22,29,14,-8,100,50,10,30.33,30.20,6,1,0,0.00
2013-3-30,51,42,33,41,26,17,98,56,34,30.21,29.84,17,5,0,0.00
2013-3-31,48,38,31,42,28,10,100,70,39,29.91,29.76,16,5,0,0.00